Time;durP1;ratioP1;P1;durP2;ratioP2;P2;SDS_P1;SDS_P2;PMS_P1;PMS_P2;Temp;Humidity;BMP_temperature;BMP_pressure;BME280_temperature;BME280_humidity;BME280_pressure;Samples;Min_cycle;Max_cycle;Signal;HPM_P1;HPM_P2
2022/04/11 00:00:35;;;;;;;5.13;2.57;;;;;;;;;;4970941;28;20412;-72
2022/04/11 00:03:00;;;;;;;7.77;2.83;;;;;;;;;;4967875;28;20357;-71
2022/04/11 00:05:25;;;;;;;7.05;2.88;;;;;;;;;;4971431;28;20773;-69
2022/04/11 00:07:50;;;;;;;11.60;3.55;;;;;;;;;;4969592;28;20049;-69
2022/04/11 00:10:16;;;;;;;8.70;2.58;;;;;;;;;;5006789;22;20378;-67
2022/04/11 00:12:41;;;;;;;4.30;2.42;;;;;;;;;;4994123;28;20105;-65
2022/04/11 00:15:06;;;;;;;16.40;3.10;;;;;;;;;;4989913;28;20109;-67
2022/04/11 00:17:32;;;;;;;5.70;2.35;;;;;;;;;;4989147;28;20041;-65
2022/04/11 00:19:57;;;;;;;6.90;3.17;;;;;;;;;;4992123;28;20022;-66
2022/04/11 00:22:22;;;;;;;6.50;3.60;;;;;;;;;;4991929;28;20093;-65
2022/04/11 00:24:49;;;;;;;6.53;2.37;;;;;;;;;;4989523;28;20274;-66
2022/04/11 00:27:14;;;;;;;6.80;3.13;;;;;;;;;;4988581;28;20327;-65
2022/04/11 00:29:39;;;;;;;8.75;2.95;;;;;;;;;;4989529;28;20486;-65
2022/04/11 00:32:04;;;;;;;4.93;2.33;;;;;;;;;;4988802;28;20030;-65
2022/04/11 00:34:30;;;;;;;4.93;2.80;;;;;;;;;;4987577;28;20757;-65
2022/04/11 00:36:55;;;;;;;6.73;2.70;;;;;;;;;;4989319;28;20470;-65
2022/04/11 00:39:20;;;;;;;6.75;2.53;;;;;;;;;;4990766;28;20353;-65
2022/04/11 00:41:45;;;;;;;8.13;2.70;;;;;;;;;;4988605;28;20027;-65
2022/04/11 00:44:10;;;;;;;7.53;2.87;;;;;;;;;;4989927;28;20285;-65
2022/04/11 00:46:35;;;;;;;7.65;2.50;;;;;;;;;;4988393;28;20296;-65
2022/04/11 00:49:01;;;;;;;8.05;3.15;;;;;;;;;;4989957;28;20121;-65
2022/04/11 00:51:26;;;;;;;4.53;2.58;;;;;;;;;;4970823;28;20049;-65
2022/04/11 00:53:52;;;;;;;3.63;2.40;;;;;;;;;;4992877;28;20425;-65
2022/04/11 00:56:19;;;;;;;6.18;3.00;;;;;;;;;;4992974;28;20023;-65
2022/04/11 00:58:45;;;;;;;4.90;2.65;;;;;;;;;;4988852;28;20023;-65
2022/04/11 01:01:10;;;;;;;10.65;2.90;;;;;;;;;;4990680;28;20445;-65
2022/04/11 01:03:35;;;;;;;7.47;2.80;;;;;;;;;;4992338;28;20618;-65
2022/04/11 01:06:01;;;;;;;12.90;2.72;;;;;;;;;;4992634;28;20018;-66
2022/04/11 01:08:27;;;;;;;8.00;2.78;;;;;;;;;;4992303;28;20022;-65
2022/04/11 01:10:52;;;;;;;6.20;3.00;;;;;;;;;;4993542;28;20482;-65
2022/04/11 01:13:17;;;;;;;7.28;3.03;;;;;;;;;;4991090;28;20097;-65
2022/04/11 01:16:12;;;;;;;7.05;3.10;;;;;;;;;;4992635;28;20459;-65
2022/04/11 01:18:38;;;;;;;6.55;2.25;;;;;;;;;;4975678;28;20168;-65
2022/04/11 01:21:03;;;;;;;6.43;2.92;;;;;;;;;;4994547;28;20120;-66
2022/04/11 01:23:29;;;;;;;12.25;2.72;;;;;;;;;;4989631;28;20029;-66
2022/04/11 01:25:54;;;;;;;8.13;3.33;;;;;;;;;;4992188;28;20229;-66
2022/04/11 01:28:20;;;;;;;4.72;2.33;;;;;;;;;;4989544;28;20022;-66
2022/04/11 01:30:46;;;;;;;7.50;2.45;;;;;;;;;;4995299;28;20030;-66
2022/04/11 01:33:15;;;;;;;13.20;3.67;;;;;;;;;;4991414;28;20033;-66
2022/04/11 01:35:40;;;;;;;8.50;2.55;;;;;;;;;;4992925;28;20024;-66
2022/04/11 01:38:05;;;;;;;5.90;2.53;;;;;;;;;;4991205;28;20101;-66
2022/04/11 01:40:30;;;;;;;6.93;3.23;;;;;;;;;;4993593;28;20332;-66
2022/04/11 01:42:55;;;;;;;11.02;2.90;;;;;;;;;;4990813;28;20530;-66
2022/04/11 01:45:21;;;;;;;10.50;3.00;;;;;;;;;;4992851;28;20101;-66
2022/04/11 01:47:46;;;;;;;11.85;2.80;;;;;;;;;;4990820;28;20286;-66
2022/04/11 01:50:11;;;;;;;7.32;2.33;;;;;;;;;;4992650;28;20022;-66
2022/04/11 01:52:36;;;;;;;4.35;2.25;;;;;;;;;;4990255;28;20032;-66
2022/04/11 01:55:02;;;;;;;8.57;2.60;;;;;;;;;;4989892;28;20057;-66
2022/04/11 01:57:28;;;;;;;10.88;2.38;;;;;;;;;;4992970;28;20014;-66
2022/04/11 01:59:53;;;;;;;8.45;2.47;;;;;;;;;;4991339;28;20092;-66
2022/04/11 02:02:18;;;;;;;6.97;2.55;;;;;;;;;;4991667;28;20018;-66
2022/04/11 02:04:43;;;;;;;9.10;3.00;;;;;;;;;;4992821;28;20482;-66
2022/04/11 02:07:09;;;;;;;10.43;3.57;;;;;;;;;;4989412;28;20280;-65
2022/04/11 02:09:34;;;;;;;6.00;2.30;;;;;;;;;;4993061;28;20265;-66
2022/04/11 02:11:59;;;;;;;10.83;3.00;;;;;;;;;;4991869;28;20281;-66
2022/04/11 02:14:25;;;;;;;11.60;2.67;;;;;;;;;;4992100;28;20289;-66
2022/04/11 02:16:50;;;;;;;4.75;2.75;;;;;;;;;;4990266;28;20026;-66
2022/04/11 02:19:15;;;;;;;9.43;3.05;;;;;;;;;;4992703;28;20066;-66
2022/04/11 02:21:40;;;;;;;9.37;2.63;;;;;;;;;;4993012;28;20015;-65
2022/04/11 02:24:06;;;;;;;6.40;2.40;;;;;;;;;;4989431;28;20860;-65
2022/04/11 02:26:31;;;;;;;8.00;2.85;;;;;;;;;;4990647;28;20034;-65
2022/04/11 02:28:56;;;;;;;5.10;2.47;;;;;;;;;;4992042;28;20061;-65
2022/04/11 02:31:21;;;;;;;7.25;2.65;;;;;;;;;;4995363;28;20276;-65
2022/04/11 02:33:46;;;;;;;7.18;2.58;;;;;;;;;;4991884;28;20030;-65
2022/04/11 02:36:11;;;;;;;9.75;2.50;;;;;;;;;;4989300;28;20033;-65
2022/04/11 02:38:37;;;;;;;10.10;3.10;;;;;;;;;;4990830;28;20015;-66
2022/04/11 02:41:02;;;;;;;5.50;2.42;;;;;;;;;;4989879;28;20029;-65
2022/04/11 02:43:27;;;;;;;6.72;2.55;;;;;;;;;;4991833;28;20025;-65
2022/04/11 02:45:52;;;;;;;13.93;2.47;;;;;;;;;;4990529;28;20092;-65
2022/04/11 02:48:17;;;;;;;6.37;2.30;;;;;;;;;;4982432;28;20796;-66
2022/04/11 02:50:43;;;;;;;4.63;2.17;;;;;;;;;;4992261;28;20274;-65
2022/04/11 02:53:08;;;;;;;6.80;2.40;;;;;;;;;;4990638;28;20273;-65
2022/04/11 02:55:33;;;;;;;7.82;2.50;;;;;;;;;;4992062;28;20022;-65
2022/04/11 02:57:58;;;;;;;5.87;2.67;;;;;;;;;;4989371;28;20088;-66
2022/04/11 03:00:23;;;;;;;7.13;2.67;;;;;;;;;;4993403;28;20752;-65
2022/04/11 03:02:49;;;;;;;5.40;2.35;;;;;;;;;;4990801;28;20277;-65
2022/04/11 03:05:14;;;;;;;4.95;2.60;;;;;;;;;;4991183;28;20493;-65
2022/04/11 03:07:39;;;;;;;5.70;2.55;;;;;;;;;;4988810;28;20029;-65
2022/04/11 03:10:05;;;;;;;8.93;2.88;;;;;;;;;;4987747;28;20036;-65
2022/04/11 03:12:31;;;;;;;9.20;2.50;;;;;;;;;;4991938;28;20101;-65
2022/04/11 03:14:56;;;;;;;5.90;2.67;;;;;;;;;;4989812;28;20084;-65
2022/04/11 03:17:21;;;;;;;4.85;2.15;;;;;;;;;;4988190;28;20030;-65
2022/04/11 03:19:46;;;;;;;6.65;2.58;;;;;;;;;;4989568;28;20583;-65
2022/04/11 03:22:12;;;;;;;7.50;2.33;;;;;;;;;;4992921;28;20145;-65
2022/04/11 03:24:37;;;;;;;8.57;3.22;;;;;;;;;;4990060;28;20105;-65
2022/04/11 03:27:03;;;;;;;7.85;2.47;;;;;;;;;;4986254;28;20034;-65
2022/04/11 03:29:28;;;;;;;6.00;2.80;;;;;;;;;;4990759;28;20022;-65
2022/04/11 03:31:53;;;;;;;9.50;2.05;;;;;;;;;;4991868;28;20364;-65
2022/04/11 03:34:18;;;;;;;8.00;2.58;;;;;;;;;;4990131;28;20386;-65
2022/04/11 03:36:43;;;;;;;15.30;3.00;;;;;;;;;;4988966;28;20033;-66
2022/04/11 03:39:09;;;;;;;6.07;2.05;;;;;;;;;;4989800;28;20273;-65
2022/04/11 03:41:34;;;;;;;5.72;2.53;;;;;;;;;;4992029;28;20027;-65
2022/04/11 03:43:59;;;;;;;6.70;1.92;;;;;;;;;;4990090;28;20379;-65
2022/04/11 03:46:24;;;;;;;4.80;2.03;;;;;;;;;;4987989;28;20030;-65
2022/04/11 03:48:49;;;;;;;8.53;2.57;;;;;;;;;;4988642;28;20278;-65
2022/04/11 03:51:14;;;;;;;7.65;2.33;;;;;;;;;;4990622;28;20285;-65
2022/04/11 03:53:40;;;;;;;5.38;2.33;;;;;;;;;;4987312;28;20411;-65
2022/04/11 03:56:06;;;;;;;4.95;2.45;;;;;;;;;;4989816;28;20105;-65
2022/04/11 03:58:31;;;;;;;6.20;2.78;;;;;;;;;;4989830;28;20037;-65
2022/04/11 04:00:56;;;;;;;5.15;2.47;;;;;;;;;;4989667;28;20025;-66
2022/04/11 04:03:21;;;;;;;7.57;2.50;;;;;;;;;;4989964;28;20072;-65
2022/04/11 04:05:47;;;;;;;7.68;2.45;;;;;;;;;;4988901;28;20280;-65
2022/04/11 04:08:12;;;;;;;8.00;2.40;;;;;;;;;;4989029;28;20026;-65
2022/04/11 04:10:38;;;;;;;4.75;2.47;;;;;;;;;;4997185;28;20414;-65
2022/04/11 04:13:03;;;;;;;6.45;2.42;;;;;;;;;;4989642;28;20066;-65
2022/04/11 04:15:29;;;;;;;7.25;2.85;;;;;;;;;;4989806;28;20504;-65
2022/04/11 04:17:55;;;;;;;7.68;2.15;;;;;;;;;;4988909;28;20026;-65
2022/04/11 04:20:20;;;;;;;10.38;2.72;;;;;;;;;;4996076;28;20015;-65
2022/04/11 04:22:45;;;;;;;4.40;2.28;;;;;;;;;;4989167;28;20462;-65
2022/04/11 04:25:11;;;;;;;7.57;2.47;;;;;;;;;;4989371;28;20468;-65
2022/04/11 04:27:36;;;;;;;4.27;2.30;;;;;;;;;;4988924;28;20033;-65
2022/04/11 04:30:01;;;;;;;7.43;2.40;;;;;;;;;;4992077;28;20281;-65
2022/04/11 04:32:27;;;;;;;6.57;2.10;;;;;;;;;;4987354;28;20026;-65
2022/04/11 04:34:52;;;;;;;7.75;2.63;;;;;;;;;;4989283;28;20030;-65
2022/04/11 04:37:17;;;;;;;6.53;3.25;;;;;;;;;;4988445;28;20627;-65
2022/04/11 04:39:42;;;;;;;8.60;2.30;;;;;;;;;;4989399;28;20026;-65
2022/04/11 04:42:08;;;;;;;3.60;2.00;;;;;;;;;;4989935;28;20026;-65
2022/04/11 04:44:33;;;;;;;2.72;1.63;;;;;;;;;;4988913;28;20037;-65
2022/04/11 04:46:58;;;;;;;7.45;2.15;;;;;;;;;;4985513;28;20061;-65
2022/04/11 04:49:23;;;;;;;5.10;2.47;;;;;;;;;;4989555;28;20022;-65
2022/04/11 04:51:48;;;;;;;9.93;2.30;;;;;;;;;;4988633;28;20280;-65
2022/04/11 04:54:14;;;;;;;4.10;2.30;;;;;;;;;;4992967;28;20107;-65
2022/04/11 04:56:39;;;;;;;11.30;2.80;;;;;;;;;;4985805;28;20475;-65
2022/04/11 04:59:04;;;;;;;4.73;2.20;;;;;;;;;;4987554;28;20280;-65
2022/04/11 05:01:29;;;;;;;7.10;2.60;;;;;;;;;;4987041;28;20280;-65
2022/04/11 05:03:54;;;;;;;6.28;2.40;;;;;;;;;;4988105;28;20030;-65
2022/04/11 05:06:22;;;;;;;4.82;2.20;;;;;;;;;;4985184;28;20034;-65
2022/04/11 05:08:47;;;;;;;5.50;2.22;;;;;;;;;;4986955;28;20673;-65
2022/04/11 05:11:13;;;;;;;8.77;2.60;;;;;;;;;;4984101;28;20030;-65
2022/04/11 05:13:40;;;;;;;5.35;2.30;;;;;;;;;;4986318;28;20141;-65
2022/04/11 05:16:05;;;;;;;4.60;2.35;;;;;;;;;;4987239;28;20026;-65
2022/04/11 05:18:30;;;;;;;7.07;2.53;;;;;;;;;;4990100;28;20041;-65
2022/04/11 05:20:55;;;;;;;11.07;2.67;;;;;;;;;;4983194;28;20034;-65
2022/04/11 05:23:20;;;;;;;6.35;2.33;;;;;;;;;;4989445;28;20793;-65
2022/04/11 05:25:46;;;;;;;6.55;2.53;;;;;;;;;;4986416;28;20032;-65
2022/04/11 05:28:11;;;;;;;7.10;2.35;;;;;;;;;;4987803;28;20053;-66
2022/04/11 05:30:36;;;;;;;5.43;2.47;;;;;;;;;;4989387;28;20410;-66
2022/04/11 05:33:02;;;;;;;6.97;2.87;;;;;;;;;;4985207;28;20282;-65
2022/04/11 05:35:27;;;;;;;6.90;2.60;;;;;;;;;;5000872;28;20309;-65
2022/04/11 05:37:52;;;;;;;11.95;3.00;;;;;;;;;;4992207;28;22003;-66
2022/04/11 05:40:18;;;;;;;7.18;2.78;;;;;;;;;;4991189;28;20018;-65
2022/04/11 05:42:43;;;;;;;9.25;2.38;;;;;;;;;;4988645;28;20797;-65
2022/04/11 05:45:08;;;;;;;7.85;2.53;;;;;;;;;;4984579;28;20094;-65
2022/04/11 05:47:33;;;;;;;10.15;2.80;;;;;;;;;;4985993;28;20478;-65
2022/04/11 05:49:58;;;;;;;8.75;2.85;;;;;;;;;;4988059;28;20030;-65
2022/04/11 05:52:24;;;;;;;6.47;2.75;;;;;;;;;;4993663;28;20061;-65
2022/04/11 05:54:49;;;;;;;11.63;2.75;;;;;;;;;;4990875;28;20022;-65
2022/04/11 05:57:14;;;;;;;15.77;3.20;;;;;;;;;;4997814;28;20301;-65
2022/04/11 05:59:39;;;;;;;7.43;2.60;;;;;;;;;;4992355;28;20016;-65
2022/04/11 06:02:05;;;;;;;12.97;2.73;;;;;;;;;;4986223;28;20375;-65
2022/04/11 06:04:30;;;;;;;10.80;2.50;;;;;;;;;;4990713;28;20273;-65
2022/04/11 06:06:55;;;;;;;7.47;2.90;;;;;;;;;;4991585;28;20496;-65
2022/04/11 06:09:20;;;;;;;7.93;2.47;;;;;;;;;;4990467;28;20466;-65
2022/04/11 06:11:46;;;;;;;6.43;2.63;;;;;;;;;;4987734;28;20034;-64
2022/04/11 06:14:11;;;;;;;7.57;3.00;;;;;;;;;;4989284;28;20122;-64
2022/04/11 06:16:36;;;;;;;9.15;2.63;;;;;;;;;;4986832;28;20278;-65
2022/04/11 06:19:01;;;;;;;9.90;2.72;;;;;;;;;;4991585;28;20018;-64
2022/04/11 06:21:27;;;;;;;3.17;1.42;;;;;;;;;;4992905;28;20130;-65
2022/04/11 06:23:52;;;;;;;8.40;2.58;;;;;;;;;;4989308;28;20045;-65
2022/04/11 06:26:17;;;;;;;6.32;2.50;;;;;;;;;;4990161;28;20475;-65
2022/04/11 06:28:42;;;;;;;3.75;2.05;;;;;;;;;;4987811;28;20030;-64
2022/04/11 06:31:11;;;;;;;8.82;1.77;;;;;;;;;;4985143;28;20285;-65
2022/04/11 06:33:37;;;;;;;7.68;2.38;;;;;;;;;;4989485;28;20033;-65
2022/04/11 06:36:02;;;;;;;12.10;3.83;;;;;;;;;;4989840;28;20018;-65
2022/04/11 06:38:27;;;;;;;9.30;2.90;;;;;;;;;;4991367;28;20018;-65
2022/04/11 06:40:52;;;;;;;3.03;2.22;;;;;;;;;;4992573;28;20472;-65
2022/04/11 06:43:17;;;;;;;8.82;1.73;;;;;;;;;;4990358;28;20274;-65
2022/04/11 06:45:43;;;;;;;6.47;1.43;;;;;;;;;;4987859;28;20073;-65
2022/04/11 06:48:09;;;;;;;5.53;2.23;;;;;;;;;;4995262;28;20825;-65
2022/04/11 06:50:34;;;;;;;4.88;2.75;;;;;;;;;;4988418;28;20360;-66
2022/04/11 06:52:59;;;;;;;7.25;2.30;;;;;;;;;;4989438;28;20109;-66
2022/04/11 06:55:24;;;;;;;3.83;2.10;;;;;;;;;;4988402;28;20881;-66
2022/04/11 06:57:49;;;;;;;7.43;2.17;;;;;;;;;;4989203;28;20281;-66
2022/04/11 07:00:15;;;;;;;5.20;1.90;;;;;;;;;;4995500;28;20054;-66
2022/04/11 07:02:40;;;;;;;2.80;1.40;;;;;;;;;;4997556;28;20258;-66
2022/04/11 07:05:06;;;;;;;8.97;2.10;;;;;;;;;;4991000;28;20027;-66
2022/04/11 07:07:31;;;;;;;3.55;1.73;;;;;;;;;;4994631;28;20281;-65
2022/04/11 07:09:58;;;;;;;6.70;2.20;;;;;;;;;;4994749;28;20026;-65
2022/04/11 07:12:23;;;;;;;6.32;2.22;;;;;;;;;;4999594;28;20026;-65
2022/04/11 07:14:48;;;;;;;8.20;2.00;;;;;;;;;;5001127;28;20340;-66
2022/04/11 07:17:14;;;;;;;5.60;1.85;;;;;;;;;;4993997;28;20121;-65
2022/04/11 07:19:39;;;;;;;2.43;1.47;;;;;;;;;;4995633;28;20040;-65
2022/04/11 07:22:04;;;;;;;4.10;2.30;;;;;;;;;;4997162;28;20756;-66
2022/04/11 07:24:29;;;;;;;5.30;2.00;;;;;;;;;;4985680;28;20281;-65
2022/04/11 07:26:54;;;;;;;4.97;2.28;;;;;;;;;;4986493;28;20360;-65
2022/04/11 07:29:19;;;;;;;5.72;1.95;;;;;;;;;;4988503;28;20042;-66
2022/04/11 07:31:45;;;;;;;14.83;2.93;;;;;;;;;;4991068;28;20030;-66
2022/04/11 07:34:10;;;;;;;2.15;1.25;;;;;;;;;;4997266;28;20670;-66
2022/04/11 07:36:35;;;;;;;7.32;2.25;;;;;;;;;;4992614;28;20038;-66
2022/04/11 07:39:00;;;;;;;7.43;2.20;;;;;;;;;;4986274;28;20022;-66
2022/04/11 07:41:25;;;;;;;4.73;1.90;;;;;;;;;;4987732;28;20853;-66
2022/04/11 07:43:53;;;;;;;7.60;2.13;;;;;;;;;;4985930;28;20277;-66
2022/04/11 07:46:18;;;;;;;5.10;1.63;;;;;;;;;;4988720;28;20258;-66
2022/04/11 07:48:44;;;;;;;6.45;2.92;;;;;;;;;;4986097;28;20022;-66
2022/04/11 07:51:09;;;;;;;4.23;1.60;;;;;;;;;;4994658;28;20026;-65
2022/04/11 07:53:35;;;;;;;2.92;1.52;;;;;;;;;;4991644;28;20022;-66
2022/04/11 07:56:00;;;;;;;4.13;1.63;;;;;;;;;;4989030;28;20471;-66
2022/04/11 07:58:25;;;;;;;2.43;1.53;;;;;;;;;;4989176;28;20289;-66
2022/04/11 08:00:53;;;;;;;12.23;1.20;;;;;;;;;;4985208;28;20280;-66
2022/04/11 08:03:19;;;;;;;8.68;1.85;;;;;;;;;;4984870;28;20288;-66
2022/04/11 08:05:44;;;;;;;5.85;2.05;;;;;;;;;;4989554;28;20022;-65
2022/04/11 08:08:09;;;;;;;2.28;1.48;;;;;;;;;;4987229;28;20030;-66
2022/04/11 08:10:34;;;;;;;7.73;2.93;;;;;;;;;;4984050;28;20026;-66
2022/04/11 08:13:00;;;;;;;5.50;1.30;;;;;;;;;;4985354;28;20379;-66
2022/04/11 08:15:26;;;;;;;4.43;2.30;;;;;;;;;;4992426;28;20026;-66
2022/04/11 08:17:51;;;;;;;4.57;1.73;;;;;;;;;;4993093;28;20069;-66
2022/04/11 08:20:18;;;;;;;5.88;2.92;;;;;;;;;;4992894;28;20441;-66
2022/04/11 08:22:43;;;;;;;4.03;1.90;;;;;;;;;;4990435;28;20101;-66
2022/04/11 08:25:08;;;;;;;7.28;3.75;;;;;;;;;;4988502;28;20026;-66
2022/04/11 08:27:34;;;;;;;6.00;1.63;;;;;;;;;;4987793;28;20042;-66
2022/04/11 08:29:59;;;;;;;5.93;1.98;;;;;;;;;;4986732;28;20025;-66
2022/04/11 08:32:24;;;;;;;2.47;1.13;;;;;;;;;;4989996;28;20025;-66
2022/04/11 08:34:49;;;;;;;4.53;1.60;;;;;;;;;;4995428;28;20026;-65
2022/04/11 08:37:14;;;;;;;10.60;1.83;;;;;;;;;;4983570;28;20145;-66
2022/04/11 08:39:40;;;;;;;5.57;1.47;;;;;;;;;;4982800;28;20666;-66
2022/04/11 08:42:05;;;;;;;9.82;1.80;;;;;;;;;;4987621;28;20034;-66
2022/04/11 08:44:32;;;;;;;5.57;2.33;;;;;;;;;;4989112;28;20161;-65
2022/04/11 08:47:00;;;;;;;8.85;1.73;;;;;;;;;;4986172;28;20030;-65
2022/04/11 08:49:25;;;;;;;6.97;2.05;;;;;;;;;;4987996;28;20057;-66
2022/04/11 08:51:50;;;;;;;7.28;1.83;;;;;;;;;;4987980;28;20058;-66
2022/04/11 08:54:16;;;;;;;4.10;1.30;;;;;;;;;;4984164;28;20511;-66
2022/04/11 08:56:41;;;;;;;7.68;1.83;;;;;;;;;;4984702;28;20040;-65
2022/04/11 08:59:06;;;;;;;3.40;1.40;;;;;;;;;;4986516;28;20042;-65
2022/04/11 09:01:32;;;;;;;9.98;2.25;;;;;;;;;;4988095;28;20101;-66
2022/04/11 09:03:58;;;;;;;4.05;2.03;;;;;;;;;;4984102;28;20043;-65
2022/04/11 09:06:23;;;;;;;2.83;1.23;;;;;;;;;;4990350;28;20054;-65
2022/04/11 09:08:50;;;;;;;7.80;2.17;;;;;;;;;;4986179;28;20435;-65
2022/04/11 09:11:29;;;;;;;5.05;1.88;;;;;;;;;;4985510;28;20050;-66
2022/04/11 09:13:55;;;;;;;3.63;1.63;;;;;;;;;;4991929;28;20495;-67
2022/04/11 09:16:20;;;;;;;3.25;2.17;;;;;;;;;;4991286;28;20215;-66
2022/04/11 09:18:46;;;;;;;4.63;1.55;;;;;;;;;;4990751;28;20085;-66
2022/04/11 09:21:12;;;;;;;5.20;2.35;;;;;;;;;;4986744;28;20049;-65
2022/04/11 09:23:37;;;;;;;6.13;2.10;;;;;;;;;;4983869;28;20056;-65
2022/04/11 09:26:15;;;;;;;5.70;2.03;;;;;;;;;;4995984;28;20503;-66
2022/04/11 09:28:40;;;;;;;6.93;2.70;;;;;;;;;;4988275;28;20269;-66
2022/04/11 09:31:05;;;;;;;5.20;1.90;;;;;;;;;;4988711;28;20081;-66
2022/04/11 09:33:37;;;;;;;5.93;2.33;;;;;;;;;;4993328;28;20376;-65
2022/04/11 09:36:02;;;;;;;3.33;1.60;;;;;;;;;;4993114;28;20022;-66
2022/04/11 09:38:29;;;;;;;6.97;2.93;;;;;;;;;;4991677;28;20028;-65
2022/04/11 09:40:54;;;;;;;6.72;1.45;;;;;;;;;;4992257;28;20274;-65
2022/04/11 09:43:24;;;;;;;13.55;2.28;;;;;;;;;;4989462;28;20010;-65
2022/04/11 09:45:49;;;;;;;3.45;1.90;;;;;;;;;;4990185;28;20105;-66
2022/04/11 09:48:16;;;;;;;3.72;2.17;;;;;;;;;;4989106;28;20664;-66
2022/04/11 09:50:41;;;;;;;7.82;3.00;;;;;;;;;;4991407;28;20027;-65
2022/04/11 09:53:16;;;;;;;3.85;1.38;;;;;;;;;;4977587;28;20164;-65
2022/04/11 09:55:43;;;;;;;5.18;2.20;;;;;;;;;;4993290;28;20510;-65
2022/04/11 09:58:09;;;;;;;2.83;1.42;;;;;;;;;;4989443;28;20386;-65
2022/04/11 10:00:35;;;;;;;2.35;1.15;;;;;;;;;;4989868;28;20018;-65
2022/04/11 10:03:01;;;;;;;2.33;1.05;;;;;;;;;;4986527;28;20014;-65
2022/04/11 10:05:27;;;;;;;6.97;1.92;;;;;;;;;;4991403;28;20436;-66
2022/04/11 10:07:54;;;;;;;2.75;1.25;;;;;;;;;;4987531;28;20026;-66
2022/04/11 10:10:20;;;;;;;2.55;1.33;;;;;;;;;;4986014;28;20026;-65
2022/04/11 10:12:46;;;;;;;3.53;1.15;;;;;;;;;;4987760;28;20451;-65
2022/04/11 10:15:12;;;;;;;6.32;1.48;;;;;;;;;;4991215;28;20515;-65
2022/04/11 10:17:37;;;;;;;5.43;1.65;;;;;;;;;;4992423;28;20029;-66
2022/04/11 10:20:02;;;;;;;3.67;1.25;;;;;;;;;;4991636;28;20085;-65
2022/04/11 10:22:27;;;;;;;5.25;1.67;;;;;;;;;;4996003;28;20033;-65
2022/04/11 10:24:53;;;;;;;8.68;1.23;;;;;;;;;;4991484;28;20037;-67
2022/04/11 10:27:23;;;;;;;5.53;1.60;;;;;;;;;;4992670;28;21162;-66
2022/04/11 10:29:49;;;;;;;;;;;;;;;;;;4994351;28;20029;-66
2022/04/11 10:32:19;;;;;;;5.10;1.73;;;;;;;;;;4983493;28;19910;-66
2022/04/11 10:34:56;;;;;;;5.18;2.47;;;;;;;;;;4987782;28;20018;-66
2022/04/11 10:37:23;;;;;;;4.18;1.73;;;;;;;;;;4984989;28;20483;-66
2022/04/11 10:39:48;;;;;;;2.90;1.33;;;;;;;;;;4969189;28;20022;-66
2022/04/11 10:42:15;;;;;;;2.08;1.88;;;;;;;;;;4989746;28;20060;-66
2022/04/11 10:44:50;;;;;;;5.93;1.75;;;;;;;;;;4986082;28;20026;-66
2022/04/11 10:47:16;;;;;;;2.60;1.63;;;;;;;;;;4988856;28;20402;-66
2022/04/11 10:49:44;;;;;;;5.00;1.38;;;;;;;;;;4989867;28;20015;-66
2022/04/11 10:52:34;;;;;;;3.50;1.10;;;;;;;;;;4986981;28;20022;-66
2022/04/11 10:55:06;;;;;;;6.72;1.85;;;;;;;;;;4988749;28;20026;-66
2022/04/11 10:57:41;;;;;;;6.65;1.65;;;;;;;;;;4992866;28;20062;-66
2022/04/11 11:00:10;;;;;;;4.07;1.25;;;;;;;;;;4992556;28;20050;-66
2022/04/11 11:02:48;;;;;;;3.28;1.35;;;;;;;;;;4989326;28;20052;-66
2022/04/11 11:05:31;;;;;;;2.67;1.35;;;;;;;;;;4985450;28;20030;-66
2022/04/11 11:08:13;;;;;;;7.22;1.55;;;;;;;;;;4988643;28;20479;-66
2022/04/11 11:10:38;;;;;;;5.43;2.15;;;;;;;;;;4983660;28;20026;-66
2022/04/11 11:13:22;;;;;;;1.17;0.85;;;;;;;;;;4988153;28;20076;-66
2022/04/11 11:15:47;;;;;;;5.55;1.80;;;;;;;;;;4985026;28;20093;-66
2022/04/11 11:18:12;;;;;;;5.87;1.77;;;;;;;;;;4986767;28;20026;-66
2022/04/11 11:20:49;;;;;;;2.20;1.43;;;;;;;;;;4990416;28;20352;-66
2022/04/11 11:23:23;;;;;;;5.40;1.15;;;;;;;;;;4985790;28;20269;-66
2022/04/11 11:25:49;;;;;;;6.75;1.35;;;;;;;;;;4989267;28;20022;-66
2022/04/11 11:28:14;;;;;;;4.22;1.20;;;;;;;;;;4990546;28;20501;-66
2022/04/11 11:30:39;;;;;;;4.05;1.85;;;;;;;;;;4985970;28;20105;-66
2022/04/11 11:33:06;;;;;;;11.95;2.03;;;;;;;;;;4988196;28;20022;-66
2022/04/11 11:35:32;;;;;;;1.23;0.98;;;;;;;;;;4987554;28;20065;-66
2022/04/11 11:38:04;;;;;;;4.07;1.73;;;;;;;;;;4987861;28;20060;-66
2022/04/11 11:40:29;;;;;;;4.75;2.05;;;;;;;;;;4987965;28;20054;-66
2022/04/11 11:42:56;;;;;;;1.48;0.90;;;;;;;;;;4987487;28;20049;-66
2022/04/11 11:45:27;;;;;;;5.88;1.60;;;;;;;;;;4987379;28;20027;-67
2022/04/11 11:47:52;;;;;;;3.85;1.65;;;;;;;;;;4986785;28;20034;-66
2022/04/11 11:50:18;;;;;;;5.65;1.27;;;;;;;;;;4981437;28;20019;-66
2022/04/11 11:52:54;;;;;;;7.25;1.80;;;;;;;;;;4984420;28;20018;-66
2022/04/11 11:55:19;;;;;;;3.25;1.70;;;;;;;;;;4985127;28;20026;-66
2022/04/11 11:57:45;;;;;;;8.20;1.60;;;;;;;;;;4981773;28;20034;-66
2022/04/11 12:00:11;;;;;;;3.13;0.93;;;;;;;;;;4988174;28;20678;-66
2022/04/11 12:05:21;;;;;;;3.72;1.33;;;;;;;;;;4990217;28;20110;-66
2022/04/11 12:07:48;;;;;;;3.40;1.58;;;;;;;;;;4982349;28;20084;-66
2022/04/11 12:10:13;;;;;;;3.50;1.60;;;;;;;;;;4988741;28;20032;-66
2022/04/11 12:12:38;;;;;;;3.22;1.17;;;;;;;;;;4988477;28;20023;-66
2022/04/11 12:15:06;;;;;;;4.50;1.05;;;;;;;;;;4988427;28;20113;-65
2022/04/11 12:17:39;;;;;;;6.13;1.20;;;;;;;;;;4987375;28;20022;-65
2022/04/11 12:20:09;;;;;;;1.75;1.05;;;;;;;;;;4987118;28;20022;-65
2022/04/11 12:22:34;;;;;;;2.33;0.95;;;;;;;;;;4989976;28;20609;-66
2022/04/11 12:24:59;;;;;;;1.75;0.88;;;;;;;;;;4994920;28;20114;-66
2022/04/11 12:27:24;;;;;;;1.83;1.20;;;;;;;;;;4990647;28;20116;-65
2022/04/11 12:29:49;;;;;;;3.40;1.10;;;;;;;;;;4987817;28;20281;-65
2022/04/11 12:32:15;;;;;;;5.57;2.50;;;;;;;;;;4986803;28;21089;-65
2022/04/11 12:34:45;;;;;;;8.43;1.63;;;;;;;;;;4982484;28;20281;-65
2022/04/11 12:37:11;;;;;;;2.00;0.82;;;;;;;;;;4989461;28;20026;-65
2022/04/11 12:40:01;;;;;;;4.32;1.55;;;;;;;;;;4988151;28;20386;-65
2022/04/11 12:42:28;;;;;;;3.13;1.63;;;;;;;;;;4988218;28;20105;-65
2022/04/11 12:45:07;;;;;;;4.60;1.77;;;;;;;;;;4983886;28;20023;-66
2022/04/11 12:47:33;;;;;;;5.63;1.90;;;;;;;;;;4990089;28;20325;-66
2022/04/11 12:49:58;;;;;;;6.55;1.77;;;;;;;;;;4992226;28;20033;-67
2022/04/11 12:52:24;;;;;;;3.37;1.30;;;;;;;;;;4989423;28;20026;-66
2022/04/11 12:55:00;;;;;;;7.15;2.15;;;;;;;;;;4992444;28;20316;-66
2022/04/11 12:57:26;;;;;;;3.28;1.95;;;;;;;;;;4994682;28;20023;-66
2022/04/11 12:59:52;;;;;;;4.82;1.55;;;;;;;;;;4992973;28;20450;-66
2022/04/11 13:02:19;;;;;;;5.22;1.85;;;;;;;;;;4992081;28;20010;-66
2022/04/11 13:04:50;;;;;;;4.10;1.60;;;;;;;;;;4992551;28;20034;-66
2022/04/11 13:07:15;;;;;;;2.78;1.55;;;;;;;;;;4990321;28;20031;-66
2022/04/11 13:09:40;;;;;;;7.22;1.98;;;;;;;;;;4991807;28;20035;-67
2022/04/11 13:12:10;;;;;;;4.23;1.73;;;;;;;;;;4990664;28;20068;-66
2022/04/11 13:14:36;;;;;;;1.92;1.00;;;;;;;;;;4990341;28;20277;-66
2022/04/11 13:19:45;;;;;;;4.50;1.50;;;;;;;;;;4991746;28;20037;-66
2022/04/11 13:22:11;;;;;;;4.95;2.03;;;;;;;;;;4991321;28;20019;-66
2022/04/11 13:24:36;;;;;;;5.27;2.13;;;;;;;;;;4984555;28;20479;-66
2022/04/11 13:27:01;;;;;;;3.63;1.92;;;;;;;;;;4988822;28;20283;-66
2022/04/11 13:29:28;;;;;;;5.28;1.40;;;;;;;;;;4991025;28;20046;-66
2022/04/11 13:31:54;;;;;;;4.70;1.52;;;;;;;;;;4986239;28;20026;-66
2022/04/11 13:34:19;;;;;;;1.30;1.00;;;;;;;;;;4988307;28;20042;-66
2022/04/11 13:36:44;;;;;;;3.17;1.88;;;;;;;;;;4991070;28;20658;-66
2022/04/11 13:39:09;;;;;;;2.47;1.35;;;;;;;;;;4987979;28;20026;-66
2022/04/11 13:41:35;;;;;;;3.92;1.63;;;;;;;;;;4989764;28;20030;-68
2022/04/11 13:44:01;;;;;;;1.13;0.80;;;;;;;;;;4993022;28;20030;-66
2022/04/11 13:46:26;;;;;;;9.05;2.00;;;;;;;;;;4988430;28;20022;-66
2022/04/11 13:48:54;;;;;;;5.40;1.30;;;;;;;;;;4992716;28;20023;-66
2022/04/11 13:51:19;;;;;;;4.32;1.80;;;;;;;;;;4989001;28;20073;-66
2022/04/11 13:53:44;;;;;;;3.92;1.52;;;;;;;;;;4988436;28;20057;-66
2022/04/11 13:56:10;;;;;;;3.07;1.50;;;;;;;;;;4991386;28;20014;-66
2022/04/11 13:58:35;;;;;;;5.63;1.85;;;;;;;;;;4989867;28;20443;-66
2022/04/11 14:01:04;;;;;;;2.87;1.37;;;;;;;;;;4989981;28;20426;-66
2022/04/11 14:03:29;;;;;;;5.43;1.67;;;;;;;;;;4990321;28;20277;-66
2022/04/11 14:05:54;;;;;;;6.85;2.17;;;;;;;;;;4991265;28;20010;-66
2022/04/11 14:08:22;;;;;;;4.57;1.67;;;;;;;;;;4989207;28;20455;-66
2022/04/11 14:10:49;;;;;;;6.13;1.98;;;;;;;;;;4986439;28;20018;-66
2022/04/11 14:13:14;;;;;;;4.82;1.35;;;;;;;;;;4990385;28;20029;-66
2022/04/11 14:15:39;;;;;;;4.03;1.25;;;;;;;;;;4992043;28;20019;-66
2022/04/11 14:18:04;;;;;;;2.57;1.30;;;;;;;;;;4990815;28;20044;-66
2022/04/11 14:20:30;;;;;;;1.98;1.20;;;;;;;;;;4996570;28;20284;-66
2022/04/11 14:22:55;;;;;;;2.47;1.40;;;;;;;;;;5005569;28;20026;-66
2022/04/11 14:25:20;;;;;;;6.60;2.00;;;;;;;;;;4996661;28;20018;-66
2022/04/11 14:27:45;;;;;;;2.80;1.08;;;;;;;;;;4996918;28;20688;-66
2022/04/11 14:30:11;;;;;;;3.43;1.60;;;;;;;;;;4984393;28;20061;-66
2022/04/11 14:32:37;;;;;;;8.98;1.70;;;;;;;;;;4991134;28;20261;-66
2022/04/11 14:35:03;;;;;;;3.22;1.65;;;;;;;;;;4988050;28;20038;-66
2022/04/11 14:37:28;;;;;;;3.25;1.35;;;;;;;;;;4989189;28;20420;-66
2022/04/11 14:39:53;;;;;;;3.17;0.95;;;;;;;;;;4992986;28;20022;-66
2022/04/11 14:42:18;;;;;;;7.73;1.60;;;;;;;;;;4990336;28;20133;-66